Map

Track Data

SID SEASON NUMBER BASIN SUBBASIN NAME ISO_TIME NATURE LAT LON WMO_WIND WMO_PRES WMO_AGENCY TRACK_TYPE DIST2LAND LANDFALL IFLAG USA_AGENCY USA_ATCF_ID USA_LAT USA_LON USA_RECORD USA_STATUS USA_WIND USA_PRES USA_SSHS USA_R34_NE USA_R34_SE USA_R34_SW USA_R34_NW USA_R50_NE USA_R50_SE USA_R50_SW USA_R50_NW USA_R64_NE USA_R64_SE USA_R64_SW USA_R64_NW USA_POCI USA_ROCI USA_RMW USA_EYE TOKYO_LAT TOKYO_LON TOKYO_GRADE TOKYO_WIND TOKYO_PRES TOKYO_R50_DIR TOKYO_R50_LONG TOKYO_R50_SHORT TOKYO_R30_DIR TOKYO_R30_LONG TOKYO_R30_SHORT TOKYO_LAND CMA_LAT CMA_LON CMA_CAT CMA_WIND CMA_PRES HKO_LAT HKO_LON HKO_CAT HKO_WIND HKO_PRES NEWDELHI_LAT NEWDELHI_LON NEWDELHI_GRADE NEWDELHI_WIND NEWDELHI_PRES NEWDELHI_CI NEWDELHI_DP NEWDELHI_POCI REUNION_LAT REUNION_LON REUNION_TYPE REUNION_WIND REUNION_PRES REUNION_TNUM REUNION_CI REUNION_RMW REUNION_R34_NE REUNION_R34_SE REUNION_R34_SW REUNION_R34_NW REUNION_R50_NE REUNION_R50_SE REUNION_R50_SW REUNION_R50_NW REUNION_R64_NE REUNION_R64_SE REUNION_R64_SW REUNION_R64_NW BOM_LAT BOM_LON BOM_TYPE BOM_WIND BOM_PRES BOM_TNUM BOM_CI BOM_RMW BOM_R34_NE BOM_R34_SE BOM_R34_SW BOM_R34_NW BOM_R50_NE BOM_R50_SE BOM_R50_SW BOM_R50_NW BOM_R64_NE BOM_R64_SE BOM_R64_SW BOM_R64_NW BOM_ROCI BOM_POCI BOM_EYE BOM_POS_METHOD BOM_PRES_METHOD NADI_LAT NADI_LON NADI_CAT NADI_WIND NADI_PRES WELLINGTON_LAT WELLINGTON_LON WELLINGTON_WIND WELLINGTON_PRES DS824_LAT DS824_LON DS824_STAGE DS824_WIND DS824_PRES TD9636_LAT TD9636_LON TD9636_STAGE TD9636_WIND TD9636_PRES TD9635_LAT TD9635_LON TD9635_WIND TD9635_PRES TD9635_ROCI NEUMANN_LAT NEUMANN_LON NEUMANN_CLASS NEUMANN_WIND NEUMANN_PRES MLC_LAT MLC_LON MLC_CLASS MLC_WIND MLC_PRES USA_GUST BOM_GUST BOM_GUST_PER REUNION_GUST REUNION_GUST_PER USA_SEAHGT USA_SEARAD_NE USA_SEARAD_SE USA_SEARAD_SW USA_SEARAD_NW STORM_SPEED STORM_DIR
2021337N14086 2021 56 NI BB JAWAD 2021-12-03 00:00:00 TS 13.8000 86.0667 PROVISIONAL 514 475 O_____________ tcvitals BB052021 14.0000 86.1000 35 1003 0 135 120 1009 240 35 7 298
2021337N14086 2021 56 NI BB JAWAD 2021-12-03 03:00:00 TS 13.9728 85.7387 PROVISIONAL 466 434 P_____________ BB052021 14.2084 85.9917 35 1003 0 100 90 1009 240 35 7 299
2021337N14086 2021 56 NI BB JAWAD 2021-12-03 06:00:00 TS 14.1465 85.4181 PROVISIONAL 434 398 I_____________ tcvitals BB052021 14.4255 85.8266 35 1003 0 65 30 60 1009 240 35 7 320
2021337N14086 2021 56 NI BB JAWAD 2021-12-03 09:00:00 TS 14.4799 85.3023 PROVISIONAL 398 379 P_____________ BB052021 14.6447 85.5729 35 1003 0 80 40 97 1008 240 35 7 350
2021337N14086 2021 56 NI BB JAWAD 2021-12-03 12:00:00 TS 14.8000 85.3000 PROVISIONAL 379 361 O_____________ tcvightals BB052021 14.8000 85.3000 35 1003 0 95 45 50 135 1008 240 35 4 327
2021337N14086 2021 56 NI BB JAWAD 2021-12-03 15:00:00 TS 14.7926 85.0924 PROVISIONAL 361 343 P_____________ BB052021 14.7606 85.0529 35 1000 0 95 55 50 125 1009 200 35 4 270
2021337N14086 2021 56 NI BB JAWAD 2021-12-03 18:00:00 TS 14.8000 84.9000 PROVISIONAL 343 324 O_____________ tcvightals BB052021 14.8000 84.9000 35 997 0 95 65 50 115 1010 160 35 4 334
2021337N14086 2021 56 NI BB JAWAD 2021-12-03 21:00:00 TS 15.1625 84.8986 PROVISIONAL 319 287 P_____________ BB052021 15.2200 84.9273 35 1001 0 1010 195 35 8 3
2021337N14086 2021 56 NI BB JAWAD 2021-12-04 00:00:00 TS 15.6000 84.9500 PROVISIONAL 294 262 O_____________ tcvightals BB052021 15.7000 85.0000 35 1005 0 1010 230 35 7 2
2021337N14086 2021 56 NI BB JAWAD 2021-12-04 03:00:00 TS 15.8762 84.9400 PROVISIONAL 262 246 P_____________ BB052021 15.9375 84.9875 35 1004 0 1010 230 35 5 355
2021337N14086 2021 56 NI BB JAWAD 2021-12-04 06:00:00 TS 16.1000 84.9000 PROVISIONAL 246 231 O_____________ tcvightals BB052021 16.1000 84.9000 35 1003 0 1010 230 35 5 350
2021337N14086 2021 56 NI BB JAWAD 2021-12-04 09:00:00 TS 16.3292 84.8601 PROVISIONAL 231 208 P_____________ BB052021 16.2775 84.6329 32 1003 -1 1009 205 30 5 0
2021337N14086 2021 56 NI BB JAWAD 2021-12-04 12:00:00 TS 16.5800 84.9000 PROVISIONAL 208 189 O_____________ tcvightals BB052021 16.5000 84.5000 29 1004 -1 1009 180 25 6 24
2021337N14086 2021 56 NI BB JAWAD 2021-12-04 15:00:00 TS 16.8774 85.1126 PROVISIONAL 189 176 P_____________ BB052021 16.8203 84.8246 29 1002 -1 1009 180 25 7 32
2021337N14086 2021 56 NI BB JAWAD 2021-12-04 18:00:00 TS 17.2000 85.3000 PROVISIONAL 176 169 O_____________ tcgp IO052021 17.2000 85.3000 TD 30 1000 -1 1009 180 25 9 34
2021337N14086 2021 56 NI BB JAWAD 2021-12-04 21:00:00 TS 17.6002 85.6221 PROVISIONAL 169 161 P_____________ IO052021 17.6075 85.6599 TD 30 1000 -1 1009 180 25 10 36
2021337N14086 2021 56 NI BB JAWAD 2021-12-05 00:00:00 TS 18.0000 85.9000 PROVISIONAL 163 148 O_____________ tcgp IO052021 18.0000 85.9000 TD 30 1000 -1 1009 180 25 7 23
2021337N14086 2021 56 NI BB JAWAD 2021-12-05 03:00:00 TS 18.2849 85.9230 PROVISIONAL 148 123 P_____________ IO052021 18.2849 85.9230 TD 27 1003 -1 1009 180 25 6 1
2021337N14086 2021 56 NI BB JAWAD 2021-12-05 06:00:00 TS 18.6000 85.9000 PROVISIONAL 123 91 O_____________ tcgp IO052021 18.6000 85.9000 TD 25 1007 -1 1009 180 25 8 4
2021337N14086 2021 56 NI BB JAWAD 2021-12-05 09:00:00 TS 19.0548 85.9829 PROVISIONAL 81 35 P_____________ IO052021 19.0548 85.9829 TD 25 1007 -1 1009 175 25 10 16
2021337N14086 2021 56 NI BB JAWAD 2021-12-05 12:00:00 TS 19.6000 86.2000 PROVISIONAL 35 0 O_____________ tcgp IO052021 19.6000 86.2000 TD 25 1007 -1 1009 170 25 13 27
2021337N14086 2021 56 NI BB JAWAD 2021-12-05 15:00:00 TS 20.1775 86.5901 PROVISIONAL 10 0 P_____________ IO052021 20.1775 86.5901 TD 20 1008 -1 1009 170 25 15 35
2021337N14086 2021 56 NI BB JAWAD 2021-12-05 18:00:00 NR 20.8000 87.1000 PROVISIONAL 10 10 O_____________ tcgp IO052021 20.8000 87.1000 DB 15 1009 -3 1009 170 25 16 38
2021337N14086 2021 56 NI BB JAWAD 2021-12-05 21:00:00 NR 21.4453 87.6441 PROVISIONAL 30 0 P_____________ IO052021 21.4453 87.6441 DB 15 1009 -3 1009 170 25 17 38
2021337N14086 2021 56 NI BB JAWAD 2021-12-06 00:00:00 NR 22.1000 88.2000 PROVISIONAL 0 O_____________ tcgp IO052021 22.1000 88.2000 DB 15 1010 -3 1009 170 25 17 38

About IBTrACS Database

This database is a web-friendly format of International Best Track Archive for Climate Stewardship (IBTrACS), a global best track data archive curated by NOAA dating back to 1842.

Updated: 2022-08-18